Nichols, New York
Current Conditions -  °F | °C
As of 1:53 PM on Sunday 23 Nov 2014 (Local Time) from KBGM Reporting Station
Overcast Overcast  
Wind Chill: 42°   Ceiling: 7000
Heat Index: 44°   Visibility: 10mi
Dew Point: 37°   Wind: 5mph
Humidity: 76%   Direction: 160°SSE
Pressure: 30.05"   Gusts: NA
Location:  42.02°N, 76.37°W
Report Text: KBGM 231853Z 16004KT 10SM OVC070 07/03 A3005 RMK AO2 RAE45 SLP185 P0001 T00670028
Loading
Personal Weather Stations






























Interactive Weather Map New forecast layout! Learn more

10-Day Weather Forecast

Advertisements
Track Severe Weather on mobile